sensor_id;sensor_type;location;lat;lon;timestamp;pressure;altitude;pressure_sealevel;temperature;humidity
22580;BME280;11456;47.030;15.396;2023-02-21T00:01:55;97650.34;;;3.69;84.96
22580;BME280;11456;47.030;15.396;2023-02-21T00:04:40;97643.03;;;3.47;86.41
22580;BME280;11456;47.030;15.396;2023-02-21T00:07:25;97642.50;;;3.55;86.57
22580;BME280;11456;47.030;15.396;2023-02-21T00:10:11;97640.13;;;3.63;86.58
22580;BME280;11456;47.030;15.396;2023-02-21T00:12:57;97641.81;;;3.77;85.88
22580;BME280;11456;47.030;15.396;2023-02-21T00:15:41;97640.78;;;3.54;86.21
22580;BME280;11456;47.030;15.396;2023-02-21T00:18:27;97650.94;;;3.36;86.91
22580;BME280;11456;47.030;15.396;2023-02-21T00:21:11;97645.72;;;3.09;87.18
22580;BME280;11456;47.030;15.396;2023-02-21T00:23:57;97644.88;;;2.96;88.67
22580;BME280;11456;47.030;15.396;2023-02-21T00:26:42;97641.88;;;2.88;89.63
22580;BME280;11456;47.030;15.396;2023-02-21T00:29:27;97637.84;;;3.08;89.02
22580;BME280;11456;47.030;15.396;2023-02-21T00:32:12;97633.28;;;2.97;88.73
22580;BME280;11456;47.030;15.396;2023-02-21T00:34:57;97633.59;;;3.05;87.87
22580;BME280;11456;47.030;15.396;2023-02-21T00:37:43;97629.00;;;2.95;88.07
22580;BME280;11456;47.030;15.396;2023-02-21T00:40:28;97625.03;;;3.51;85.08
22580;BME280;11456;47.030;15.396;2023-02-21T00:43:13;97626.88;;;3.38;85.60
22580;BME280;11456;47.030;15.396;2023-02-21T00:46:02;97620.34;;;3.54;84.21
22580;BME280;11456;47.030;15.396;2023-02-21T00:48:47;97624.66;;;3.32;85.64
22580;BME280;11456;47.030;15.396;2023-02-21T00:51:32;97623.50;;;3.10;86.18
22580;BME280;11456;47.030;15.396;2023-02-21T00:54:17;97624.88;;;3.03;87.25
22580;BME280;11456;47.030;15.396;2023-02-21T00:57:02;97622.88;;;2.94;88.08
22580;BME280;11456;47.030;15.396;2023-02-21T00:59:47;97622.31;;;3.14;87.64
22580;BME280;11456;47.030;15.396;2023-02-21T01:02:33;97615.09;;;3.04;88.48
22580;BME280;11456;47.030;15.396;2023-02-21T01:05:18;97613.78;;;3.09;88.15
22580;BME280;11456;47.030;15.396;2023-02-21T01:08:04;97616.31;;;3.49;85.00
22580;BME280;11456;47.030;15.396;2023-02-21T01:10:49;97618.69;;;3.15;86.91
22580;BME280;11456;47.030;15.396;2023-02-21T01:13:34;97614.88;;;2.94;88.24
22580;BME280;11456;47.030;15.396;2023-02-21T01:16:19;97622.09;;;2.92;88.55
22580;BME280;11456;47.030;15.396;2023-02-21T01:19:04;97619.97;;;2.85;88.79
22580;BME280;11456;47.030;15.396;2023-02-21T01:21:50;97617.75;;;2.91;88.81
22580;BME280;11456;47.030;15.396;2023-02-21T01:24:36;97618.25;;;2.96;88.98
22580;BME280;11456;47.030;15.396;2023-02-21T01:27:22;97616.56;;;2.95;88.74
22580;BME280;11456;47.030;15.396;2023-02-21T01:30:07;97607.63;;;2.96;89.45
22580;BME280;11456;47.030;15.396;2023-02-21T01:32:52;97610.59;;;2.79;90.17
22580;BME280;11456;47.030;15.396;2023-02-21T01:35:39;97607.63;;;2.96;89.43
22580;BME280;11456;47.030;15.396;2023-02-21T01:38:26;97605.06;;;2.82;89.75
22580;BME280;11456;47.030;15.396;2023-02-21T01:41:11;97603.59;;;2.91;89.71
22580;BME280;11456;47.030;15.396;2023-02-21T01:44:00;97592.75;;;2.81;89.61
22580;BME280;11456;47.030;15.396;2023-02-21T01:46:46;97585.31;;;2.86;90.25
22580;BME280;11456;47.030;15.396;2023-02-21T01:49:31;97585.91;;;3.02;89.87
22580;BME280;11456;47.030;15.396;2023-02-21T01:52:18;97582.72;;;2.97;89.56
22580;BME280;11456;47.030;15.396;2023-02-21T01:55:04;97587.41;;;3.06;89.51
22580;BME280;11456;47.030;15.396;2023-02-21T01:57:49;97580.81;;;2.99;89.32
22580;BME280;11456;47.030;15.396;2023-02-21T02:00:34;97569.34;;;2.86;90.04
22580;BME280;11456;47.030;15.396;2023-02-21T02:03:19;97576.22;;;3.01;89.33
22580;BME280;11456;47.030;15.396;2023-02-21T02:06:07;97569.53;;;3.08;88.71
22580;BME280;11456;47.030;15.396;2023-02-21T02:08:53;97579.13;;;2.98;89.03
22580;BME280;11456;47.030;15.396;2023-02-21T02:17:41;97570.19;;;2.74;90.21
22580;BME280;11456;47.030;15.396;2023-02-21T02:25:21;97575.28;;;3.02;90.40
22580;BME280;11456;47.030;15.396;2023-02-21T02:27:54;97561.88;;;3.04;90.16
22580;BME280;11456;47.030;15.396;2023-02-21T02:30:35;97571.66;;;3.03;90.16
22580;BME280;11456;47.030;15.396;2023-02-21T02:36:23;97571.03;;;3.12;90.41
22580;BME280;11456;47.030;15.396;2023-02-21T02:38:26;97572.63;;;3.02;89.83
22580;BME280;11456;47.030;15.396;2023-02-21T02:40:58;97568.25;;;2.89;90.34
22580;BME280;11456;47.030;15.396;2023-02-21T02:43:43;97579.03;;;2.87;90.91
22580;BME280;11456;47.030;15.396;2023-02-21T02:48:49;97575.50;;;2.87;90.14
22580;BME280;11456;47.030;15.396;2023-02-21T02:51:18;97582.09;;;2.94;90.57
22580;BME280;11456;47.030;15.396;2023-02-21T02:53:45;97578.06;;;3.13;89.78
22580;BME280;11456;47.030;15.396;2023-02-21T02:56:13;97565.28;;;3.06;89.51
22580;BME280;11456;47.030;15.396;2023-02-21T03:11:21;97566.56;;;3.00;90.13
22580;BME280;11456;47.030;15.396;2023-02-21T03:13:56;97574.84;;;2.83;90.01
22580;BME280;11456;47.030;15.396;2023-02-21T03:16:28;97571.47;;;2.81;90.05
22580;BME280;11456;47.030;15.396;2023-02-21T03:21:29;97577.84;;;2.91;89.73
22580;BME280;11456;47.030;15.396;2023-02-21T03:23:59;97575.81;;;2.57;90.57
22580;BME280;11456;47.030;15.396;2023-02-21T03:26:28;97571.47;;;2.56;90.78
22580;BME280;11456;47.030;15.396;2023-02-21T03:29:05;97559.31;;;2.77;90.77
22580;BME280;11456;47.030;15.396;2023-02-21T03:31:34;97557.59;;;3.01;90.17
22580;BME280;11456;47.030;15.396;2023-02-21T03:34:03;97553.81;;;2.80;90.27
22580;BME280;11456;47.030;15.396;2023-02-21T03:36:29;97549.44;;;2.66;90.27
22580;BME280;11456;47.030;15.396;2023-02-21T03:38:56;97557.00;;;2.60;90.53
22580;BME280;11456;47.030;15.396;2023-02-21T03:41:23;97544.47;;;2.62;90.61
22580;BME280;11456;47.030;15.396;2023-02-21T03:43:50;97551.69;;;2.72;90.72
22580;BME280;11456;47.030;15.396;2023-02-21T03:46:17;97547.53;;;2.81;90.64
22580;BME280;11456;47.030;15.396;2023-02-21T03:48:44;97548.50;;;2.80;91.50
22580;BME280;11456;47.030;15.396;2023-02-21T03:51:18;97553.16;;;2.89;90.70
22580;BME280;11456;47.030;15.396;2023-02-21T03:53:45;97556.75;;;2.88;90.11
22580;BME280;11456;47.030;15.396;2023-02-21T03:56:12;97555.91;;;3.13;89.00
22580;BME280;11456;47.030;15.396;2023-02-21T03:59:08;97556.78;;;2.75;88.79
22580;BME280;11456;47.030;15.396;2023-02-21T04:01:35;97553.16;;;2.64;89.49
22580;BME280;11456;47.030;15.396;2023-02-21T04:04:01;97552.09;;;2.66;90.23
22580;BME280;11456;47.030;15.396;2023-02-21T04:06:28;97553.38;;;2.48;91.35
22580;BME280;11456;47.030;15.396;2023-02-21T04:08:56;97549.34;;;2.68;91.27
22580;BME280;11456;47.030;15.396;2023-02-21T04:11:24;97556.16;;;2.72;91.30
22580;BME280;11456;47.030;15.396;2023-02-21T04:13:52;97553.91;;;2.40;91.44
22580;BME280;11456;47.030;15.396;2023-02-21T04:16:19;97557.94;;;2.59;91.85
22580;BME280;11456;47.030;15.396;2023-02-21T04:18:48;97549.66;;;2.63;90.60
22580;BME280;11456;47.030;15.396;2023-02-21T04:21:16;97545.31;;;2.50;90.97
22580;BME280;11456;47.030;15.396;2023-02-21T04:23:43;97540.59;;;2.40;91.59
22580;BME280;11456;47.030;15.396;2023-02-21T04:26:10;97554.09;;;2.63;91.25
22580;BME280;11456;47.030;15.396;2023-02-21T04:28:43;97542.00;;;2.71;90.60
22580;BME280;11456;47.030;15.396;2023-02-21T04:31:09;97545.06;;;2.40;90.50
22580;BME280;11456;47.030;15.396;2023-02-21T04:33:36;97538.28;;;2.36;90.53
22580;BME280;11456;47.030;15.396;2023-02-21T04:36:03;97548.25;;;2.32;90.72
22580;BME280;11456;47.030;15.396;2023-02-21T04:38:34;97539.91;;;2.12;91.61
22580;BME280;11456;47.030;15.396;2023-02-21T04:41:00;97534.00;;;2.21;91.87
22580;BME280;11456;47.030;15.396;2023-02-21T04:43:28;97544.00;;;2.17;91.98
22580;BME280;11456;47.030;15.396;2023-02-21T04:45:54;97541.88;;;2.22;91.97
22580;BME280;11456;47.030;15.396;2023-02-21T04:48:23;97541.88;;;2.22;91.72
22580;BME280;11456;47.030;15.396;2023-02-21T04:50:49;97539.75;;;2.27;91.89
22580;BME280;11456;47.030;15.396;2023-02-21T04:53:16;97533.59;;;2.39;91.33
22580;BME280;11456;47.030;15.396;2023-02-21T04:55:42;97536.56;;;2.48;90.68
22580;BME280;11456;47.030;15.396;2023-02-21T04:58:09;97535.50;;;2.37;90.34
22580;BME280;11456;47.030;15.396;2023-02-21T05:00:36;97522.50;;;2.20;90.31
22580;BME280;11456;47.030;15.396;2023-02-21T05:03:02;97522.19;;;2.25;90.38
22580;BME280;11456;47.030;15.396;2023-02-21T05:05:29;97535.03;;;2.18;90.35
22580;BME280;11456;47.030;15.396;2023-02-21T05:07:55;97532.94;;;2.23;91.00
22580;BME280;11456;47.030;15.396;2023-02-21T05:10:22;97540.19;;;2.34;90.64
22580;BME280;11456;47.030;15.396;2023-02-21T05:12:52;97520.19;;;2.28;91.14
22580;BME280;11456;47.030;15.396;2023-02-21T05:15:18;97520.34;;;2.00;91.76
22580;BME280;11456;47.030;15.396;2023-02-21T05:17:45;97514.91;;;1.89;92.25
22580;BME280;11456;47.030;15.396;2023-02-21T05:20:12;97523.16;;;2.24;91.28
22580;BME280;11456;47.030;15.396;2023-02-21T05:22:39;97515.50;;;2.32;90.80
22580;BME280;11456;47.030;15.396;2023-02-21T05:25:07;97518.59;;;2.38;90.41
22580;BME280;11456;47.030;15.396;2023-02-21T05:27:39;97518.88;;;2.09;90.40
22580;BME280;11456;47.030;15.396;2023-02-21T05:30:05;97523.53;;;2.05;91.12
22580;BME280;11456;47.030;15.396;2023-02-21T05:32:32;97508.97;;;1.58;92.30
22580;BME280;11456;47.030;15.396;2023-02-21T05:34:59;97527.28;;;1.76;92.82
22580;BME280;11456;47.030;15.396;2023-02-21T05:37:25;97526.69;;;1.85;92.16
22580;BME280;11456;47.030;15.396;2023-02-21T05:39:52;97530.31;;;1.84;92.03
22580;BME280;11456;47.030;15.396;2023-02-21T05:42:18;97517.56;;;1.89;91.54
22580;BME280;11456;47.030;15.396;2023-02-21T05:44:45;97510.06;;;2.08;91.55
22580;BME280;11456;47.030;15.396;2023-02-21T05:47:12;97515.19;;;2.11;91.47
22580;BME280;11456;47.030;15.396;2023-02-21T05:49:39;97526.47;;;1.88;91.72
22580;BME280;11456;47.030;15.396;2023-02-21T05:52:06;97526.06;;;1.94;91.91
22580;BME280;11456;47.030;15.396;2023-02-21T05:54:33;97523.09;;;1.98;90.79
22580;BME280;11456;47.030;15.396;2023-02-21T05:57:00;97520.75;;;1.94;90.35
22580;BME280;11456;47.030;15.396;2023-02-21T05:59:26;97536.75;;;1.80;90.70
22580;BME280;11456;47.030;15.396;2023-02-21T06:01:53;97539.81;;;1.74;91.58
22580;BME280;11456;47.030;15.396;2023-02-21T06:04:20;97531.31;;;1.69;91.18
22580;BME280;11456;47.030;15.396;2023-02-21T06:06:47;97524.16;;;1.96;91.43
22580;BME280;11456;47.030;15.396;2023-02-21T06:09:14;97525.25;;;2.06;90.32
22580;BME280;11456;47.030;15.396;2023-02-21T06:11:40;97531.50;;;2.05;90.07
22580;BME280;11456;47.030;15.396;2023-02-21T06:14:08;97535.97;;;1.92;90.08
22580;BME280;11456;47.030;15.396;2023-02-21T06:16:38;97529.75;;;2.43;90.93
22580;BME280;11456;47.030;15.396;2023-02-21T06:19:05;97541.91;;;2.48;88.83
22580;BME280;11456;47.030;15.396;2023-02-21T06:21:32;97541.88;;;2.22;89.33
22580;BME280;11456;47.030;15.396;2023-02-21T06:24:01;97540.31;;;2.06;89.72
22580;BME280;11456;47.030;15.396;2023-02-21T06:26:28;97543.44;;;2.25;90.86
22580;BME280;11456;47.030;15.396;2023-02-21T06:28:54;97544.88;;;2.30;89.92
22580;BME280;11456;47.030;15.396;2023-02-21T06:31:21;97549.78;;;2.62;89.51
22580;BME280;11456;47.030;15.396;2023-02-21T06:33:48;97545.50;;;2.85;89.12
22580;BME280;11456;47.030;15.396;2023-02-21T06:36:16;97542.72;;;3.11;88.67
22580;BME280;11456;47.030;15.396;2023-02-21T06:38:44;97546.31;;;3.10;87.85
22580;BME280;11456;47.030;15.396;2023-02-21T06:41:13;97544.00;;;3.06;88.58
22580;BME280;11456;47.030;15.396;2023-02-21T06:43:40;97549.19;;;3.07;88.56
22580;BME280;11456;47.030;15.396;2023-02-21T06:46:06;97550.25;;;3.54;88.10
22580;BME280;11456;47.030;15.396;2023-02-21T06:48:33;97550.16;;;3.79;87.51
22580;BME280;11456;47.030;15.396;2023-02-21T06:51:00;97558.81;;;4.41;86.38
22580;BME280;11456;47.030;15.396;2023-02-21T06:53:26;97569.09;;;4.46;85.19
22580;BME280;11456;47.030;15.396;2023-02-21T06:55:53;97572.56;;;4.81;83.25
22580;BME280;11456;47.030;15.396;2023-02-21T06:58:19;97568.94;;;4.82;82.23
22580;BME280;11456;47.030;15.396;2023-02-21T07:00:46;97573.00;;;5.44;82.39
22580;BME280;11456;47.030;15.396;2023-02-21T07:03:12;97568.41;;;5.78;79.63
22580;BME280;11456;47.030;15.396;2023-02-21T07:05:39;97565.78;;;6.53;78.74
22580;BME280;11456;47.030;15.396;2023-02-21T07:08:05;97560.66;;;6.50;73.94
22580;BME280;11456;47.030;15.396;2023-02-21T07:10:32;97558.97;;;6.49;74.00
22580;BME280;11456;47.030;15.396;2023-02-21T07:12:58;97563.47;;;7.41;73.28
22580;BME280;11456;47.030;15.396;2023-02-21T07:15:25;97557.63;;;7.66;69.98
22580;BME280;11456;47.030;15.396;2023-02-21T07:17:52;97550.56;;;7.75;67.90
22580;BME280;11456;47.030;15.396;2023-02-21T07:20:19;97551.75;;;7.91;66.79
22580;BME280;11456;47.030;15.396;2023-02-21T07:22:45;97563.19;;;9.09;63.74
22580;BME280;11456;47.030;15.396;2023-02-21T07:25:14;97559.97;;;9.97;60.87
22580;BME280;11456;47.030;15.396;2023-02-21T07:27:41;97556.59;;;10.58;58.44
22580;BME280;11456;47.030;15.396;2023-02-21T07:30:08;97565.31;;;10.95;54.97
22580;BME280;11456;47.030;15.396;2023-02-21T07:32:34;97567.50;;;10.74;54.97
22580;BME280;11456;47.030;15.396;2023-02-21T07:35:01;97564.28;;;10.88;56.05
22580;BME280;11456;47.030;15.396;2023-02-21T07:37:28;97561.53;;;11.57;55.17
22580;BME280;11456;47.030;15.396;2023-02-21T07:39:54;97558.53;;;12.11;50.99
22580;BME280;11456;47.030;15.396;2023-02-21T07:42:21;97563.81;;;11.78;50.83
22580;BME280;11456;47.030;15.396;2023-02-21T07:44:47;97562.16;;;11.77;52.27
22580;BME280;11456;47.030;15.396;2023-02-21T07:47:14;97560.09;;;12.21;51.26
22580;BME280;11456;47.030;15.396;2023-02-21T07:49:40;97560.34;;;12.52;49.49
22580;BME280;11456;47.030;15.396;2023-02-21T07:52:07;97554.00;;;12.11;49.19
22580;BME280;11456;47.030;15.396;2023-02-21T07:54:33;97561.81;;;11.80;50.18
22580;BME280;11456;47.030;15.396;2023-02-21T07:57:00;97567.13;;;11.64;50.67
22580;BME280;11456;47.030;15.396;2023-02-21T07:59:26;97568.50;;;11.42;50.21
22580;BME280;11456;47.030;15.396;2023-02-21T08:01:53;97563.81;;;11.78;50.06
22580;BME280;11456;47.030;15.396;2023-02-21T08:04:20;97560.34;;;12.68;48.81
22580;BME280;11456;47.030;15.396;2023-02-21T08:06:48;97550.03;;;13.84;46.93
22580;BME280;11456;47.030;15.396;2023-02-21T08:09:15;97556.31;;;13.21;45.85
22580;BME280;11456;47.030;15.396;2023-02-21T08:11:41;97554.28;;;12.82;47.09
22580;BME280;11456;47.030;15.396;2023-02-21T08:14:08;97555.44;;;13.37;46.22
22580;BME280;11456;47.030;15.396;2023-02-21T08:16:34;97549.06;;;13.77;45.17
22580;BME280;11456;47.030;15.396;2023-02-21T08:19:01;97564.75;;;13.34;45.35
22580;BME280;11456;47.030;15.396;2023-02-21T08:21:28;97566.78;;;12.83;46.71
22580;BME280;11456;47.030;15.396;2023-02-21T08:23:54;97558.09;;;14.08;46.54
22580;BME280;11456;47.030;15.396;2023-02-21T08:26:21;97559.16;;;14.22;43.16
22580;BME280;11456;47.030;15.396;2023-02-21T08:28:47;97563.44;;;14.16;44.34
22580;BME280;11456;47.030;15.396;2023-02-21T08:31:14;97557.69;;;14.73;42.21
22580;BME280;11456;47.030;15.396;2023-02-21T08:33:41;97561.22;;;14.20;42.52
22580;BME280;11456;47.030;15.396;2023-02-21T08:36:07;97569.28;;;14.28;41.53
22580;BME280;11456;47.030;15.396;2023-02-21T08:38:34;97569.88;;;14.15;42.15
22580;BME280;11456;47.030;15.396;2023-02-21T08:41:00;97572.50;;;14.85;40.90
22580;BME280;11456;47.030;15.396;2023-02-21T08:43:28;97577.00;;;14.78;40.25
22580;BME280;11456;47.030;15.396;2023-02-21T08:45:55;97573.63;;;14.14;40.97
22580;BME280;11456;47.030;15.396;2023-02-21T08:48:21;97569.50;;;14.26;41.08
22580;BME280;11456;47.030;15.396;2023-02-21T08:50:48;97574.16;;;14.40;41.60
22580;BME280;11456;47.030;15.396;2023-02-21T08:53:15;97563.31;;;14.40;40.65
22580;BME280;11456;47.030;15.396;2023-02-21T08:55:41;97566.78;;;14.26;40.40
22580;BME280;11456;47.030;15.396;2023-02-21T08:58:09;97559.59;;;14.41;40.21
22580;BME280;11456;47.030;15.396;2023-02-21T09:00:36;97567.22;;;14.07;41.07
22580;BME280;11456;47.030;15.396;2023-02-21T09:03:03;97557.22;;;14.47;39.98
22580;BME280;11456;47.030;15.396;2023-02-21T09:05:30;97565.66;;;14.97;39.87
22580;BME280;11456;47.030;15.396;2023-02-21T09:07:58;97567.56;;;15.11;37.21
22580;BME280;11456;47.030;15.396;2023-02-21T09:10:30;97563.50;;;15.45;36.49
22580;BME280;11456;47.030;15.396;2023-02-21T09:12:59;97563.16;;;15.48;35.75
22580;BME280;11456;47.030;15.396;2023-02-21T09:15:26;97561.59;;;16.48;38.78
22580;BME280;11456;47.030;15.396;2023-02-21T09:17:52;97562.84;;;15.80;37.03
22580;BME280;11456;47.030;15.396;2023-02-21T09:20:23;97567.22;;;15.81;35.42
22580;BME280;11456;47.030;15.396;2023-02-21T09:22:51;97572.84;;;16.45;34.23
22580;BME280;11456;47.030;15.396;2023-02-21T09:25:19;97562.22;;;17.56;32.91
22580;BME280;11456;47.030;15.396;2023-02-21T09:27:46;97559.59;;;16.93;34.43
22580;BME280;11456;47.030;15.396;2023-02-21T09:30:14;97572.19;;;15.92;36.73
22580;BME280;11456;47.030;15.396;2023-02-21T09:32:41;97564.59;;;16.53;37.99
22580;BME280;11456;47.030;15.396;2023-02-21T09:35:08;97575.69;;;17.37;34.06
22580;BME280;11456;47.030;15.396;2023-02-21T09:37:38;97569.59;;;17.07;35.11
22580;BME280;11456;47.030;15.396;2023-02-21T09:40:24;97562.44;;;18.17;32.85
22580;BME280;11456;47.030;15.396;2023-02-21T09:42:55;97556.81;;;18.86;31.98
22580;BME280;11456;47.030;15.396;2023-02-21T09:45:24;97554.91;;;18.80;32.37
22580;BME280;11456;47.030;15.396;2023-02-21T09:47:53;97555.88;;;17.71;34.51
22580;BME280;11456;47.030;15.396;2023-02-21T09:50:22;97554.34;;;18.43;35.42
22580;BME280;11456;47.030;15.396;2023-02-21T09:52:54;97559.50;;;18.66;34.84
22580;BME280;11456;47.030;15.396;2023-02-21T09:55:33;97556.22;;;19.17;33.38
22580;BME280;11456;47.030;15.396;2023-02-21T09:58:01;97558.34;;;18.41;33.63
22580;BME280;11456;47.030;15.396;2023-02-21T10:00:28;97553.47;;;18.91;34.07
22580;BME280;11456;47.030;15.396;2023-02-21T10:03:02;97556.25;;;19.37;31.30
22580;BME280;11456;47.030;15.396;2023-02-21T10:08:11;97551.16;;;19.93;30.92
22580;BME280;11456;47.030;15.396;2023-02-21T10:10:47;97558.31;;;19.94;30.39
22580;BME280;11456;47.030;15.396;2023-02-21T10:16:02;97547.91;;;20.29;29.92
22580;BME280;11456;47.030;15.396;2023-02-21T10:21:37;97549.81;;;20.35;29.82
22580;BME280;11456;47.030;15.396;2023-02-21T10:24:10;97554.47;;;21.04;28.95
22580;BME280;11456;47.030;15.396;2023-02-21T10:26:38;97548.97;;;21.10;28.13
22580;BME280;11456;47.030;15.396;2023-02-21T10:29:29;97551.13;;;21.02;29.27
22580;BME280;11456;47.030;15.396;2023-02-21T10:31:59;97553.06;;;21.26;29.97
22580;BME280;11456;47.030;15.396;2023-02-21T10:34:29;97546.16;;;21.48;30.53
22580;BME280;11456;47.030;15.396;2023-02-21T10:36:57;97544.03;;;21.93;30.74
22580;BME280;11456;47.030;15.396;2023-02-21T10:39:32;97544.78;;;22.07;30.19
22580;BME280;11456;47.030;15.396;2023-02-21T10:42:00;97542.47;;;22.40;29.51
22580;BME280;11456;47.030;15.396;2023-02-21T10:44:31;97533.03;;;22.36;27.09
22580;BME280;11456;47.030;15.396;2023-02-21T10:47:07;97534.69;;;22.37;25.83
22580;BME280;11456;47.030;15.396;2023-02-21T10:49:46;97536.03;;;22.65;25.53
22580;BME280;11456;47.030;15.396;2023-02-21T10:52:16;97532.09;;;22.43;23.96
22580;BME280;11456;47.030;15.396;2023-02-21T10:57:58;97531.56;;;21.97;22.98
22580;BME280;11456;47.030;15.396;2023-02-21T11:00:42;97535.28;;;22.58;22.33
22580;BME280;11456;47.030;15.396;2023-02-21T11:05:39;97518.66;;;22.71;21.66
22580;BME280;11456;47.030;15.396;2023-02-21T11:08:07;97519.25;;;22.73;22.72
22580;BME280;11456;47.030;15.396;2023-02-21T11:10:36;97515.88;;;22.89;21.54
22580;BME280;11456;47.030;15.396;2023-02-21T11:15:33;97512.44;;;22.46;22.77
22580;BME280;11456;47.030;15.396;2023-02-21T11:18:10;97504.69;;;23.02;21.52
22580;BME280;11456;47.030;15.396;2023-02-21T11:20:38;97492.69;;;23.38;22.01
22580;BME280;11456;47.030;15.396;2023-02-21T11:23:15;97498.81;;;23.75;21.02
22580;BME280;11456;47.030;15.396;2023-02-21T11:25:43;97488.00;;;24.09;21.30
22580;BME280;11456;47.030;15.396;2023-02-21T11:30:46;97481.34;;;23.35;21.90
22580;BME280;11456;47.030;15.396;2023-02-21T11:33:17;97483.38;;;23.39;22.62
22580;BME280;11456;47.030;15.396;2023-02-21T11:35:45;97475.75;;;23.65;22.11
22580;BME280;11456;47.030;15.396;2023-02-21T11:38:28;97475.03;;;23.57;22.02
22580;BME280;11456;47.030;15.396;2023-02-21T11:40:55;97480.97;;;23.43;22.14
22580;BME280;11456;47.030;15.396;2023-02-21T11:43:24;97474.91;;;23.87;22.02
22580;BME280;11456;47.030;15.396;2023-02-21T11:48:17;97476.81;;;23.52;21.74
22580;BME280;11456;47.030;15.396;2023-02-21T11:50:47;97472.38;;;23.97;21.68
22580;BME280;11456;47.030;15.396;2023-02-21T11:53:23;97468.38;;;24.28;22.19
22580;BME280;11456;47.030;15.396;2023-02-21T11:58:47;97459.94;;;24.07;22.62
22580;BME280;11456;47.030;15.396;2023-02-21T12:01:19;97463.16;;;24.04;22.06
22580;BME280;11456;47.030;15.396;2023-02-21T12:06:27;97456.16;;;23.61;22.13
22580;BME280;11456;47.030;15.396;2023-02-21T12:08:58;97451.22;;;23.98;22.26
22580;BME280;11456;47.030;15.396;2023-02-21T12:11:40;97445.63;;;24.33;22.13
22580;BME280;11456;47.030;15.396;2023-02-21T12:19:49;97432.63;;;25.02;20.59
22580;BME280;11456;47.030;15.396;2023-02-21T12:22:25;97432.09;;;24.88;20.90
22580;BME280;11456;47.030;15.396;2023-02-21T12:25:42;97424.59;;;24.27;21.30
22580;BME280;11456;47.030;15.396;2023-02-21T12:38:30;97414.50;;;24.89;19.66
22580;BME280;11456;47.030;15.396;2023-02-21T12:41:22;97410.41;;;24.92;20.23
22580;BME280;11456;47.030;15.396;2023-02-21T12:44:14;97392.09;;;24.01;21.00
22580;BME280;11456;47.030;15.396;2023-02-21T12:46:59;97401.19;;;24.13;20.93
22580;BME280;11456;47.030;15.396;2023-02-21T12:51:56;97386.50;;;23.95;20.58
22580;BME280;11456;47.030;15.396;2023-02-21T12:57:11;97387.34;;;24.36;20.50
22580;BME280;11456;47.030;15.396;2023-02-21T12:59:46;97379.28;;;23.66;20.18
22580;BME280;11456;47.030;15.396;2023-02-21T13:05:18;97375.81;;;24.67;19.41
22580;BME280;11456;47.030;15.396;2023-02-21T13:07:51;97378.41;;;24.29;19.99
22580;BME280;11456;47.030;15.396;2023-02-21T13:10:24;97368.91;;;23.96;20.43
22580;BME280;11456;47.030;15.396;2023-02-21T13:13:09;97365.78;;;24.05;20.41
22580;BME280;11456;47.030;15.396;2023-02-21T13:15:37;97360.59;;;24.48;19.70
22580;BME280;11456;47.030;15.396;2023-02-21T13:20:43;97359.78;;;24.19;18.92
22580;BME280;11456;47.030;15.396;2023-02-21T13:28:35;97354.09;;;23.97;19.46
22580;BME280;11456;47.030;15.396;2023-02-21T13:31:04;97346.66;;;24.55;18.38
22580;BME280;11456;47.030;15.396;2023-02-21T13:33:42;97355.25;;;24.02;19.62
22580;BME280;11456;47.030;15.396;2023-02-21T13:36:23;97344.47;;;24.12;19.26
22580;BME280;11456;47.030;15.396;2023-02-21T13:41:40;97336.31;;;24.62;17.98
22580;BME280;11456;47.030;15.396;2023-02-21T13:44:15;97345.47;;;24.06;18.13
22580;BME280;11456;47.030;15.396;2023-02-21T13:51:57;97338.88;;;24.35;18.15
22580;BME280;11456;47.030;15.396;2023-02-21T13:57:28;97333.69;;;24.22;18.35
22580;BME280;11456;47.030;15.396;2023-02-21T13:59:55;97336.47;;;23.70;18.40
22580;BME280;11456;47.030;15.396;2023-02-21T14:02:28;97336.56;;;23.87;18.39
22580;BME280;11456;47.030;15.396;2023-02-21T14:04:59;97335.34;;;24.23;19.45
22580;BME280;11456;47.030;15.396;2023-02-21T14:07:46;97334.44;;;24.06;18.48
22580;BME280;11456;47.030;15.396;2023-02-21T14:10:16;97330.53;;;23.50;18.74
22580;BME280;11456;47.030;15.396;2023-02-21T14:12:49;97328.69;;;23.79;18.46
22580;BME280;11456;47.030;15.396;2023-02-21T14:15:16;97329.22;;;23.41;19.44
22580;BME280;11456;47.030;15.396;2023-02-21T14:17:45;97333.34;;;23.78;18.94
22580;BME280;11456;47.030;15.396;2023-02-21T14:20:19;97335.34;;;23.83;19.49
22580;BME280;11456;47.030;15.396;2023-02-21T14:22:48;97325.84;;;24.02;18.63
22580;BME280;11456;47.030;15.396;2023-02-21T14:25:20;97324.63;;;24.10;19.43
22580;BME280;11456;47.030;15.396;2023-02-21T14:27:49;97325.84;;;24.02;19.79
22580;BME280;11456;47.030;15.396;2023-02-21T14:30:24;97321.66;;;23.71;19.75
22580;BME280;11456;47.030;15.396;2023-02-21T14:32:54;97322.75;;;23.98;19.57
22580;BME280;11456;47.030;15.396;2023-02-21T14:35:44;97316.81;;;23.27;21.06
22580;BME280;11456;47.030;15.396;2023-02-21T14:38:22;97319.75;;;23.72;20.72
22580;BME280;11456;47.030;15.396;2023-02-21T14:41:08;97315.78;;;23.04;20.45
22580;BME280;11456;47.030;15.396;2023-02-21T14:54:20;97320.47;;;22.51;21.75
22580;BME280;11456;47.030;15.396;2023-02-21T15:03:22;97327.91;;;23.32;20.51
22580;BME280;11456;47.030;15.396;2023-02-21T15:05:16;97322.28;;;23.38;21.12
22580;BME280;11456;47.030;15.396;2023-02-21T15:12:38;97334.63;;;23.12;21.57
22580;BME280;11456;47.030;15.396;2023-02-21T15:15:10;97329.38;;;23.23;21.33
22580;BME280;11456;47.030;15.396;2023-02-21T15:17:39;97335.72;;;23.23;21.53
22580;BME280;11456;47.030;15.396;2023-02-21T15:20:16;97337.25;;;22.84;21.49
22580;BME280;11456;47.030;15.396;2023-02-21T15:22:42;97334.41;;;23.02;20.97
22580;BME280;11456;47.030;15.396;2023-02-21T15:27:37;97341.47;;;22.57;20.92